Página principal
METAR-TAF:

METAR-TAF

Aeroportos :

Elim, Alasca, Estados Unidos

latitude: 64-36-54N, longitude: 162-16-14W, altura: 49 m

Observação actual do tempo

O boletim foi feito há 50 minutos, às 04:56 UTC
Vento 4 kt com direcção variável
Temperatura 13°C
Humidade 51%
Pressão 1023 hPa
Visibilidade: 16.1 km
Céu limpo

METAR: PFEL 140456Z AUTO VRB04KT 10SM CLR 13/03 A3022 RMK AO2 SLP235 T01280033 PNO $

Hora: 21:46 (05:46 UTC)


TAF: em falta

Observações e previsões do tempo de mais de 4000 aeroportos (mensagens METAR e TAF).

As estações disponíveis são os pontos amarelos e vermelhos sobre o mapa.

Mova o rato sobre o mapa para ver o nome da estação.

Depois clique no ponto para visualizar as observações e previsões meteorológicas.

Para alterar o mapa : clique nos botões verdes com uma cruz preta para aumentar o zoom; no botão verde com uma pitada de zoom; ou nas setas verdes para mapas adjacentes.


METAR-TAF: